Time;durP1;ratioP1;P1;durP2;ratioP2;P2;SDS_P1;SDS_P2;PMS_P1;PMS_P2;Temp;Humidity;BMP_temperature;BMP_pressure;BME280_temperature;BME280_humidity;BME280_pressure;Samples;Min_cycle;Max_cycle;Signal;HPM_P1;HPM_P2
2023/06/30 07:06:31;;;;;;;23.30;22.00;;;33.30;99.90;;;;;;6266874;22;20031;-93
2023/06/30 07:08:58;;;;;;;23.63;22.23;;;32.70;99.90;;;;;;6225904;22;20087;-91
2023/06/30 07:11:36;;;;;;;24.10;22.70;;;32.10;99.90;;;;;;6226152;22;20020;-92
2023/06/30 07:14:24;;;;;;;23.42;22.08;;;32.80;99.90;;;;;;6226216;22;20483;-92
2023/06/30 07:22:24;;;;;;;;;;;;;;;;;;;;;
2023/06/30 07:25:19;;;;;;;23.55;22.20;;;32.90;99.90;;;;;;6193670;23;20045;-93
2023/06/30 07:35:47;;;;;;;23.58;22.25;;;33.70;99.90;;;;;;6258777;22;20031;-93
2023/06/30 07:38:14;;;;;;;23.98;22.48;;;33.40;99.90;;;;;;6229535;22;20035;-93
2023/06/30 07:40:40;;;;;;;24.10;22.70;;;33.30;99.90;;;;;;6228018;22;20337;-91
2023/06/30 07:46:17;;;;;;;23.45;21.85;;;33.40;99.90;;;;;;6262960;22;20099;-72
2023/06/30 07:48:49;;;;;;;23.90;22.27;;;33.30;99.90;;;;;;6279632;22;20032;-83
2023/06/30 07:51:17;;;;;;;23.35;22.15;;;33.30;99.90;;;;;;6220337;22;20046;-85
2023/06/30 07:53:44;;;;;;;23.83;22.33;;;32.70;99.90;;;;;;6222302;23;20036;-84
2023/06/30 07:56:16;;;;;;;24.20;22.70;;;33.10;99.90;;;;;;6246579;23;20049;-85
2023/06/30 07:58:42;;;;;;;24.02;22.48;;;33.70;99.90;;;;;;6222714;23;20422;-84
2023/06/30 08:01:12;;;;;;;23.40;22.13;;;34.10;99.90;;;;;;6223103;23;20028;-84
2023/06/30 08:03:43;;;;;;;23.35;21.92;;;33.80;99.90;;;;;;6248019;22;20012;-85
2023/06/30 09:54:40;;;;;;;23.92;22.27;;;34.30;99.90;;;;;;6277947;22;20375;-93
2023/06/30 09:57:22;;;;;;;24.48;22.33;;;33.60;99.90;;;;;;6230150;22;20501;-92
2023/06/30 10:38:54;;;;;;;21.25;19.85;;;29.80;99.90;;;;;;6253537;22;20058;-94
2023/06/30 10:47:10;;;;;;;19.85;18.80;;;28.80;99.90;;;;;;6271455;22;19938;-94
2023/06/30 12:13:53;;;;;;;23.02;21.42;;;33.00;99.90;;;;;;6245051;22;19996;-93
2023/06/30 12:34:49;;;;;;;23.92;22.33;;;32.40;99.90;;;;;;6271874;22;20050;-94
2023/06/30 15:56:39;;;;;;;22.73;21.15;;;30.00;99.90;;;;;;6250144;22;20097;-94
2023/06/30 15:59:11;;;;;;;23.67;21.90;;;30.00;99.90;;;;;;6228691;22;20003;-94
2023/06/30 16:02:00;;;;;;;23.10;21.42;;;30.00;99.90;;;;;;6224209;22;20012;-95
2023/06/30 16:07:44;;;;;;;22.95;21.52;;;29.90;99.90;;;;;;6103336;23;20010;-94
2023/06/30 16:32:05;;;;;;;21.50;20.17;;;29.40;99.90;;;;;;6254425;22;20023;-94
2023/06/30 16:35:33;;;;;;;;;;;;;;;;;;;;;
2023/06/30 16:38:43;;;;;;;21.38;20.13;;;29.30;99.90;;;;;;6030365;23;20008;-93
2023/06/30 16:41:51;;;;;;;21.98;20.23;;;29.20;99.90;;;;;;5990507;23;20152;-92
2023/06/30 16:46:49;;;;;;;22.00;20.50;;;29.10;99.90;;;;;;6280933;22;20020;-93
2023/06/30 16:49:43;;;;;;;22.00;20.50;;;29.10;99.90;;;;;;6240450;22;20019;-93
2023/06/30 16:55:50;;;;;;;21.08;19.67;;;28.90;99.90;;;;;;6243067;22;20468;-92
2023/06/30 16:58:17;;;;;;;21.48;20.08;;;28.80;99.90;;;;;;6227898;22;20003;-92
2023/06/30 17:00:44;;;;;;;21.65;20.05;;;28.70;99.90;;;;;;6227307;22;20004;-92
2023/06/30 17:03:10;;;;;;;21.25;19.95;;;28.70;99.90;;;;;;6227520;22;20012;-92
2023/06/30 17:05:37;;;;;;;21.13;19.60;;;28.50;99.90;;;;;;6227148;22;19999;-91
2023/06/30 17:08:03;;;;;;;22.67;20.90;;;28.40;99.90;;;;;;6240224;22;19999;-92
2023/06/30 17:10:33;;;;;;;21.83;20.35;;;28.40;99.90;;;;;;6274667;22;20073;-93
2023/06/30 17:13:03;;;;;;;20.88;19.58;;;28.30;99.90;;;;;;6234795;22;20008;-92
2023/06/30 17:15:30;;;;;;;21.52;20.23;;;28.30;99.90;;;;;;6226753;22;20023;-92
2023/06/30 17:17:57;;;;;;;21.40;20.00;;;28.20;99.90;;;;;;6226901;22;20008;-92
2023/06/30 17:20:24;;;;;;;21.30;20.10;;;28.10;99.90;;;;;;6227403;22;20022;-94
2023/06/30 17:22:56;;;;;;;21.25;19.55;;;28.00;99.90;;;;;;6228023;22;20050;-92
2023/06/30 17:28:06;;;;;;;21.35;20.05;;;27.90;99.90;;;;;;6283542;22;20027;-94
2023/06/30 17:30:33;;;;;;;21.85;20.45;;;27.80;99.90;;;;;;6231946;22;20041;-93
2023/06/30 17:33:20;;;;;;;21.92;20.35;;;27.80;99.90;;;;;;6239054;22;20108;-92
2023/06/30 17:36:18;;;;;;;;;;;;;;;;;;;;;
2023/06/30 17:38:53;;;;;;;21.85;20.50;;;27.70;99.90;;;;;;6255731;23;20034;-94
2023/06/30 17:41:36;;;;;;;21.13;19.73;;;27.70;99.90;;;;;;6228874;23;20013;-93
2023/06/30 17:44:06;;;;;;;21.60;20.08;;;27.50;99.90;;;;;;6224058;23;20004;-93
2023/06/30 17:47:08;;;;;;;;;;;;;;;;;;;;;
2023/06/30 17:53:24;;;;;;;21.00;19.60;;;27.30;99.90;;;;;;6252968;22;20015;-94
2023/06/30 17:55:58;;;;;;;20.05;18.92;;;27.20;99.90;;;;;;6226601;22;20004;-94
2023/06/30 17:58:34;;;;;;;20.10;18.90;;;27.20;99.90;;;;;;6254369;22;20011;-92
2023/06/30 18:01:01;;;;;;;20.80;19.45;;;27.00;99.90;;;;;;6253340;22;20003;-92
2023/06/30 18:03:27;;;;;;;20.58;19.38;;;27.00;99.90;;;;;;6228259;22;20010;-93
2023/06/30 18:05:54;;;;;;;21.05;19.70;;;26.90;99.90;;;;;;6227481;22;20004;-93
2023/06/30 18:08:23;;;;;;;20.80;19.48;;;26.80;99.90;;;;;;6226972;22;20003;-93
2023/06/30 18:11:14;;;;;;;20.90;19.50;;;26.80;99.90;;;;;;6227514;22;20326;-93
2023/06/30 18:14:05;;;;;;;;;;;26.70;99.90;;;;;;6256286;22;20030;-94
2023/06/30 18:16:31;;;;;;;20.08;18.77;;;26.60;99.90;;;;;;6252752;22;19914;-93
2023/06/30 18:19:02;;;;;;;20.85;19.10;;;26.50;99.90;;;;;;6228528;22;19996;-93
2023/06/30 19:12:38;;;;;;;17.05;16.05;;;25.20;99.90;;;;;;6304156;22;20053;-92
2023/06/30 19:15:23;;;;;;;17.17;16.08;;;25.20;99.90;;;;;;6243258;22;20016;-94
2023/06/30 19:18:10;;;;;;;;;;;;;;;;;;;;;
2023/06/30 19:21:13;;;;;;;17.85;16.73;;;25.10;99.90;;;;;;6223862;23;20422;-93
2023/06/30 19:23:49;;;;;;;18.33;17.15;;;25.00;99.90;;;;;;6210393;22;19999;-93
2023/06/30 19:26:21;;;;;;;18.40;16.98;;;25.00;99.90;;;;;;6250380;22;20000;-92
2023/06/30 19:28:54;;;;;;;18.92;17.83;;;25.00;99.90;;;;;;6226133;22;19992;-91
2023/06/30 19:31:21;;;;;;;18.05;16.88;;;25.00;99.90;;;;;;6239222;22;20340;-91
2023/06/30 19:33:53;;;;;;;18.08;16.95;;;24.90;99.90;;;;;;6233671;22;20012;-92
2023/06/30 19:39:08;;;;;;;20.05;18.60;;;24.90;99.90;;;;;;6345708;22;20019;-92
2023/06/30 19:59:54;;;;;;;19.30;18.10;;;24.50;99.90;;;;;;6213233;23;20056;-92
2023/06/30 20:02:28;;;;;;;19.55;18.20;;;24.50;99.90;;;;;;6228185;22;20040;-92
2023/06/30 20:20:48;;;;;;;17.85;16.75;;;23.60;99.90;;;;;;6295023;22;20022;-92
2023/06/30 20:23:15;;;;;;;17.70;16.60;;;23.50;99.90;;;;;;6280645;22;20051;-91
2023/06/30 20:25:49;;;;;;;17.27;16.00;;;23.50;99.90;;;;;;6234637;22;20042;-91
2023/06/30 20:28:18;;;;;;;16.67;15.68;;;23.50;99.90;;;;;;6229163;22;20006;-92
2023/06/30 20:30:49;;;;;;;17.38;16.25;;;23.40;99.90;;;;;;6228389;22;20086;-93
2023/06/30 20:33:21;;;;;;;17.33;16.23;;;23.40;99.90;;;;;;6247987;23;20008;-93
2023/06/30 20:36:21;;;;;;;16.90;15.82;;;23.30;99.90;;;;;;6222514;22;20123;-92
2023/06/30 20:39:00;;;;;;;16.67;15.57;;;23.20;99.90;;;;;;6245045;23;20008;-93
2023/06/30 20:41:26;;;;;;;16.67;15.57;;;23.20;99.90;;;;;;6247609;23;20464;-92
2023/06/30 20:43:52;;;;;;;15.90;14.90;;;23.10;99.90;;;;;;6223382;23;20016;-92
2023/06/30 20:46:20;;;;;;;16.00;14.82;;;23.10;99.90;;;;;;6249798;22;20083;-94
2023/06/30 20:48:46;;;;;;;15.57;14.57;;;23.10;99.90;;;;;;6224374;23;20008;-93
2023/06/30 20:51:13;;;;;;;16.20;15.10;;;23.10;99.90;;;;;;6251523;23;20355;-93
2023/06/30 20:53:41;;;;;;;15.85;14.85;;;23.20;99.90;;;;;;6252619;23;20008;-92
2023/06/30 20:56:07;;;;;;;16.60;15.23;;;23.10;99.90;;;;;;6226799;23;20008;-92
2023/06/30 20:58:34;;;;;;;15.90;14.60;;;23.10;99.90;;;;;;6248349;23;20062;-94
2023/06/30 21:01:00;;;;;;;15.63;14.52;;;23.10;99.90;;;;;;6222365;23;20000;-94
2023/06/30 21:03:28;;;;;;;15.77;14.70;;;23.10;99.90;;;;;;6253112;22;20082;-91
2023/06/30 21:05:54;;;;;;;15.50;14.15;;;23.00;99.90;;;;;;6231439;22;20295;-93
2023/06/30 21:08:20;;;;;;;14.63;13.63;;;22.90;99.90;;;;;;6230903;22;20107;-95
2023/06/30 21:10:47;;;;;;;14.38;13.55;;;22.80;99.90;;;;;;6232119;22;20019;-91
2023/06/30 21:13:13;;;;;;;14.10;13.20;;;22.80;99.90;;;;;;6174652;23;20005;-92
2023/06/30 21:15:39;;;;;;;14.70;13.73;;;22.80;99.90;;;;;;6166501;23;20020;-93
2023/06/30 21:18:06;;;;;;;13.30;12.40;;;22.80;99.90;;;;;;6164072;23;20008;-94
2023/06/30 21:20:32;;;;;;;14.05;12.88;;;22.70;99.90;;;;;;6165615;23;20095;-91
2023/06/30 21:22:59;;;;;;;13.93;12.57;;;22.70;99.90;;;;;;6191118;23;20474;-92
2023/06/30 21:25:26;;;;;;;14.02;12.90;;;22.60;99.90;;;;;;6190803;23;20008;-92
2023/06/30 21:27:52;;;;;;;13.43;12.60;;;22.70;99.90;;;;;;6191225;23;20008;-95
2023/06/30 21:30:19;;;;;;;13.20;12.30;;;22.60;99.90;;;;;;6190790;23;20009;-94
2023/06/30 21:32:45;;;;;;;13.02;12.05;;;22.60;99.90;;;;;;6191822;23;20012;-93
2023/06/30 21:35:11;;;;;;;12.88;12.07;;;22.70;99.90;;;;;;6191405;23;20001;-94
2023/06/30 21:37:37;;;;;;;13.05;12.13;;;22.60;99.90;;;;;;6190141;23;20008;-94
2023/06/30 21:40:04;;;;;;;12.70;11.90;;;22.60;99.90;;;;;;6190436;23;20438;-93
2023/06/30 21:42:30;;;;;;;12.98;12.18;;;22.50;99.90;;;;;;6190695;23;20011;-94
2023/06/30 21:44:57;;;;;;;12.40;11.60;;;22.60;99.90;;;;;;6216796;23;20012;-93
2023/06/30 21:47:26;;;;;;;12.38;11.57;;;22.70;99.90;;;;;;6222630;23;20001;-93
2023/06/30 21:49:54;;;;;;;12.50;11.68;;;22.60;99.90;;;;;;6221500;23;20019;-94
2023/06/30 21:52:21;;;;;;;12.30;11.43;;;22.60;99.90;;;;;;6220724;23;20049;-92
2023/06/30 21:54:47;;;;;;;12.82;11.90;;;22.60;99.90;;;;;;6221234;23;20011;-95
2023/06/30 21:57:13;;;;;;;13.10;11.98;;;22.50;99.90;;;;;;6224761;23;20031;-93
2023/06/30 22:00:20;;;;;;;12.20;11.40;;;22.50;99.90;;;;;;6223787;23;20083;-95
2023/06/30 22:02:55;;;;;;;11.60;10.90;;;22.50;99.90;;;;;;6178101;23;20090;-92
2023/06/30 22:05:25;;;;;;;11.60;10.82;;;22.50;99.90;;;;;;6222982;23;20107;-93
2023/06/30 22:07:52;;;;;;;11.63;10.73;;;22.50;99.90;;;;;;6225792;23;20087;-94
2023/06/30 22:10:21;;;;;;;11.32;10.63;;;22.40;99.90;;;;;;6224194;23;20008;-92
2023/06/30 22:12:47;;;;;;;11.45;10.60;;;22.50;99.90;;;;;;6225455;23;20011;-93
2023/06/30 22:15:14;;;;;;;11.02;10.40;;;22.50;99.90;;;;;;6221404;23;20022;-92
2023/06/30 22:17:41;;;;;;;11.70;10.95;;;22.60;99.90;;;;;;6221016;23;20011;-95
2023/06/30 22:20:07;;;;;;;11.27;10.52;;;22.60;99.90;;;;;;6220023;23;20016;-92
2023/06/30 22:22:34;;;;;;;11.35;10.57;;;22.80;99.90;;;;;;6245439;23;20015;-92
2023/06/30 22:25:03;;;;;;;12.18;11.43;;;22.70;99.90;;;;;;6226201;22;20061;-91
2023/06/30 22:27:30;;;;;;;11.75;10.77;;;22.70;99.90;;;;;;6226320;22;20003;-92
2023/06/30 22:29:58;;;;;;;11.85;10.95;;;22.50;99.90;;;;;;6245678;23;20004;-93
2023/06/30 22:32:24;;;;;;;12.57;11.57;;;22.60;99.90;;;;;;6245715;23;20026;-94
2023/06/30 22:34:50;;;;;;;12.02;11.15;;;22.50;99.90;;;;;;6220389;23;20004;-92
2023/06/30 22:37:17;;;;;;;11.60;10.80;;;22.50;99.90;;;;;;6245264;22;20095;-93
2023/06/30 22:39:43;;;;;;;11.68;10.88;;;22.50;99.90;;;;;;6214048;23;20027;-92
2023/06/30 22:42:09;;;;;;;11.93;11.02;;;22.40;99.90;;;;;;6254525;22;20031;-93
2023/06/30 22:44:35;;;;;;;12.75;11.43;;;22.40;99.90;;;;;;6226503;22;20014;-93
2023/06/30 22:47:02;;;;;;;11.82;11.00;;;22.30;99.90;;;;;;6220655;23;20450;-93
2023/06/30 22:49:28;;;;;;;10.98;10.27;;;22.40;99.90;;;;;;6220764;23;20079;-93
2023/06/30 22:51:55;;;;;;;11.02;10.43;;;22.40;99.90;;;;;;6220783;23;20026;-93
2023/06/30 22:54:21;;;;;;;11.35;10.45;;;22.40;99.90;;;;;;6220549;23;20004;-92
2023/06/30 22:56:48;;;;;;;12.00;10.82;;;22.30;99.90;;;;;;6220571;23;20011;-93
2023/06/30 22:59:14;;;;;;;11.25;10.38;;;22.30;99.90;;;;;;6220523;23;20007;-94
2023/06/30 23:01:40;;;;;;;10.82;10.10;;;22.20;99.90;;;;;;6220532;23;20031;-91
2023/06/30 23:04:06;;;;;;;10.95;9.93;;;22.10;99.90;;;;;;6195575;23;20007;-92
2023/06/30 23:06:33;;;;;;;10.43;9.68;;;22.10;99.90;;;;;;6220789;23;20334;-93
2023/06/30 23:09:01;;;;;;;11.20;10.27;;;22.10;99.90;;;;;;6220801;23;20005;-93
2023/06/30 23:11:28;;;;;;;10.52;9.80;;;22.10;99.90;;;;;;6207990;23;20015;-92
2023/06/30 23:13:55;;;;;;;10.25;9.55;;;22.20;99.90;;;;;;6237490;23;20063;-93
2023/06/30 23:16:22;;;;;;;10.20;9.60;;;22.20;99.90;;;;;;6222644;22;20031;-92
2023/06/30 23:18:58;;;;;;;10.15;9.43;;;22.20;99.90;;;;;;6195923;23;20011;-95
2023/06/30 23:21:24;;;;;;;10.20;9.50;;;22.20;99.90;;;;;;6195383;23;20307;-92
2023/06/30 23:23:50;;;;;;;10.25;9.45;;;22.20;99.90;;;;;;6245790;23;20004;-92
2023/06/30 23:26:23;;;;;;;10.30;9.48;;;22.20;99.90;;;;;;6220680;22;20385;-94
2023/06/30 23:28:50;;;;;;;10.00;9.40;;;22.20;99.90;;;;;;6247118;23;20347;-91
2023/06/30 23:31:19;;;;;;;11.15;9.27;;;22.10;99.90;;;;;;6220636;23;20036;-92
2023/06/30 23:33:54;;;;;;;10.10;9.40;;;22.00;99.90;;;;;;6220902;23;20043;-94
2023/06/30 23:36:20;;;;;;;9.43;8.80;;;22.00;99.90;;;;;;6246316;23;20008;-93
2023/06/30 23:38:47;;;;;;;9.30;8.57;;;22.00;99.90;;;;;;6220760;23;20074;-92
2023/06/30 23:41:14;;;;;;;11.30;10.30;;;22.00;99.90;;;;;;6247896;23;20032;-93
2023/06/30 23:43:41;;;;;;;9.77;8.93;;;21.90;99.90;;;;;;6221310;23;20065;-93
2023/06/30 23:46:19;;;;;;;9.50;8.70;;;21.90;99.90;;;;;;6223902;23;20163;-93
2023/06/30 23:49:05;;;;;;;;;;;;;;;;;;;;;
2023/06/30 23:51:34;;;;;;;8.63;7.90;;;21.80;99.90;;;;;;6222762;23;20020;-94
2023/06/30 23:54:08;;;;;;;9.52;8.70;;;21.80;99.90;;;;;;6221864;23;20031;-92
2023/06/30 23:56:35;;;;;;;10.25;8.32;;;21.80;99.90;;;;;;6218274;23;20012;-92
2023/06/30 23:59:05;;;;;;;8.98;8.32;;;21.70;99.90;;;;;;6212133;23;20013;-93
